Time;durP1;ratioP1;P1;durP2;ratioP2;P2;SDS_P1;SDS_P2;PMS_P1;PMS_P2;Temp;Humidity;BMP_temperature;BMP_pressure;BME280_temperature;BME280_humidity;BME280_pressure;Samples;Min_cycle;Max_cycle;Signal;HPM_P1;HPM_P2
2023/05/23 00:02:12;;;;;;;5.85;5.13;;;18.20;99.90;;;-141.84;61.69;21137.13;5031077;28;20236;-59
2023/05/23 00:04:41;;;;;;;7.25;4.90;;;18.20;99.90;;;-141.84;62.25;21116.78;5030627;28;20210;-58
2023/05/23 00:07:10;;;;;;;6.07;4.97;;;18.20;99.90;;;-141.84;61.48;21135.09;5030208;28;20202;-58
2023/05/23 00:09:38;;;;;;;6.78;4.72;;;18.20;99.90;;;-141.84;61.59;21116.78;5030720;28;20399;-59
2023/05/23 00:12:07;;;;;;;5.78;5.07;;;18.20;99.90;;;-141.84;61.99;21110.69;5030156;28;20292;-59
2023/05/23 00:14:35;;;;;;;5.95;4.47;;;18.20;99.90;;;-141.84;62.35;21080.19;5030230;28;20226;-59
2023/05/23 00:17:04;;;;;;;5.18;4.68;;;18.20;99.90;;;-141.84;62.42;21059.88;5030146;28;20485;-59
2023/05/23 00:19:35;;;;;;;6.80;4.85;;;18.20;99.90;;;-141.84;62.59;21041.56;5030497;28;20205;-61
2023/05/23 00:22:04;;;;;;;5.20;4.75;;;18.20;99.90;;;-141.84;62.90;21090.38;5030067;28;20598;-58
2023/05/23 00:24:32;;;;;;;7.90;5.18;;;18.20;99.90;;;-141.84;63.07;21092.41;5030176;28;20240;-58
2023/05/23 00:27:00;;;;;;;5.90;4.90;;;18.20;99.90;;;-141.84;62.75;21114.75;5030053;28;20244;-59
2023/05/23 00:29:29;;;;;;;5.63;4.70;;;18.20;99.90;;;-141.84;63.11;21090.38;5032332;28;20209;-59
2023/05/23 00:31:57;;;;;;;5.70;4.53;;;18.20;99.90;;;-141.84;63.45;21086.31;5029603;28;20293;-59
2023/05/23 00:34:25;;;;;;;7.28;5.20;;;18.10;99.90;;;-141.84;63.45;21047.69;5031419;28;20282;-59
2023/05/23 00:36:54;;;;;;;6.22;5.50;;;18.10;99.90;;;-141.84;63.43;21049.72;5034221;28;20222;-59
2023/05/23 00:39:23;;;;;;;5.88;5.22;;;18.10;99.90;;;-141.84;62.54;21084.28;5034343;28;20306;-59
2023/05/23 00:41:52;;;;;;;7.00;4.93;;;18.10;99.90;;;-141.84;63.19;21059.88;5034387;28;20292;-60
2023/05/23 00:44:21;;;;;;;8.10;5.60;;;18.10;99.90;;;-141.84;63.68;21076.13;5034144;28;20288;-60
2023/05/23 00:46:56;;;;;;;6.55;5.00;;;18.10;99.90;;;-141.84;63.87;21025.31;5034078;28;20187;-59
2023/05/23 00:49:26;;;;;;;5.85;5.18;;;18.00;99.90;;;-141.84;62.28;21063.94;5034438;28;20262;-59
2023/05/23 00:51:56;;;;;;;5.55;5.05;;;18.10;99.90;;;-141.84;63.14;21053.78;5033912;28;20639;-58
2023/05/23 00:54:29;;;;;;;5.38;4.68;;;18.00;99.90;;;-141.84;63.46;21013.13;5033796;28;20710;-60
2023/05/23 00:56:59;;;;;;;6.22;5.40;;;18.00;99.90;;;-141.84;62.87;21080.19;5034191;28;20217;-60
2023/05/23 00:59:27;;;;;;;6.88;5.35;;;18.10;99.90;;;-141.84;63.36;21013.13;4999236;28;20285;-59
2023/05/23 01:01:59;;;;;;;5.90;5.28;;;18.00;99.90;;;-141.84;62.52;21049.72;5034380;28;20205;-60
2023/05/23 01:04:27;;;;;;;7.20;5.18;;;18.00;99.90;;;-141.84;62.00;21084.28;5033667;28;20580;-59
2023/05/23 01:06:57;;;;;;;7.97;5.28;;;18.10;99.90;;;-141.84;63.15;21037.50;5033677;28;20677;-60
2023/05/23 01:09:28;;;;;;;5.85;5.25;;;18.00;99.90;;;-141.84;64.59;21017.19;5033962;28;20206;-59
2023/05/23 01:12:15;;;;;;;5.75;5.22;;;18.00;99.90;;;-141.84;65.63;20976.53;5033657;28;20226;-58
2023/05/23 01:14:59;;;;;;;9.23;5.55;;;17.90;99.90;;;-141.84;66.51;20960.25;5033404;28;20655;-58
2023/05/23 01:17:40;;;;;;;6.30;5.80;;;17.80;99.90;;;-141.84;66.87;20968.38;5033858;28;20206;-58
2023/05/23 01:20:16;;;;;;;7.40;6.00;;;17.80;99.90;;;-141.84;67.58;20992.78;5033841;28;20222;-60
2023/05/23 01:23:29;;;;;;;7.13;6.20;;;17.80;99.90;;;-141.84;66.07;20994.81;5033781;28;20209;-59
2023/05/23 01:26:33;;;;;;;7.03;6.28;;;17.70;99.90;;;-141.84;65.56;21082.25;5027425;28;20229;-58
2023/05/23 01:29:11;;;;;;;6.90;6.20;;;17.80;99.90;;;-141.84;66.17;21025.31;5028141;28;20267;-59
2023/05/23 01:31:45;;;;;;;7.13;6.25;;;17.80;99.90;;;-141.84;68.12;20978.56;5038914;28;20276;-60
2023/05/23 01:34:15;;;;;;;7.68;6.47;;;17.80;99.90;;;-141.84;67.87;20972.47;5033479;28;20233;-59
2023/05/23 01:36:44;;;;;;;7.72;6.05;;;17.70;99.90;;;-141.84;68.41;20958.22;5033575;28;20186;-60
2023/05/23 01:39:12;;;;;;;7.25;6.65;;;17.60;99.90;;;-141.84;68.72;20976.53;5033669;28;20642;-58
2023/05/23 01:41:40;;;;;;;7.70;6.90;;;17.60;99.90;;;-141.84;69.13;20966.34;5033220;28;20296;-59
2023/05/23 01:44:10;;;;;;;8.07;7.25;;;17.50;99.90;;;-141.84;68.36;20937.91;5033488;28;20226;-58
2023/05/23 01:46:40;;;;;;;7.85;7.05;;;17.60;99.90;;;-141.84;69.73;20929.75;5032860;28;20226;-60
2023/05/23 01:49:13;;;;;;;8.05;6.78;;;17.50;99.90;;;-141.84;70.50;20905.38;5033761;28;20600;-59
2023/05/23 01:51:42;;;;;;;8.13;6.93;;;17.50;99.90;;;-141.84;69.55;20915.53;5033296;28;20207;-59
2023/05/23 01:54:11;;;;;;;8.27;7.00;;;17.40;99.90;;;-141.84;70.10;20911.47;5033324;28;20625;-58
2023/05/23 01:56:41;;;;;;;7.82;7.00;;;17.40;99.90;;;-141.84;70.15;20891.13;5032763;28;20289;-58
2023/05/23 01:59:12;;;;;;;7.88;7.07;;;17.40;99.90;;;-141.84;70.13;20911.47;5035673;28;20297;-58
2023/05/23 02:01:41;;;;;;;7.68;6.88;;;17.40;99.90;;;-141.84;70.43;20933.81;5053034;28;20710;-59
2023/05/23 02:04:10;;;;;;;8.77;7.88;;;17.40;99.90;;;-141.84;71.13;20929.75;5053369;28;20202;-59
2023/05/23 02:06:38;;;;;;;9.95;7.80;;;17.40;99.90;;;-141.84;71.49;20891.13;5053047;28;20586;-59
2023/05/23 02:09:06;;;;;;;8.40;7.60;;;17.30;99.90;;;-141.84;72.45;20872.84;5052076;28;20240;-59
2023/05/23 02:11:35;;;;;;;18.33;8.88;;;17.30;99.90;;;-141.84;72.57;20870.81;5033026;28;20208;-59
2023/05/23 02:14:03;;;;;;;9.38;8.50;;;17.30;99.90;;;-141.84;73.33;20860.66;5032559;28;20234;-59
2023/05/23 02:16:35;;;;;;;9.82;8.93;;;17.30;99.90;;;-141.84;73.72;20858.59;5032403;28;20292;-60
2023/05/23 02:19:04;;;;;;;9.82;8.93;;;17.30;99.90;;;-141.84;74.88;20801.69;5032783;28;20313;-59
2023/05/23 02:21:32;;;;;;;9.10;8.20;;;17.20;99.90;;;-141.84;75.63;20830.16;5032810;28;20658;-58
2023/05/23 02:24:02;;;;;;;10.00;9.10;;;17.20;99.90;;;-141.84;76.19;20801.69;5032501;28;20206;-58
2023/05/23 02:26:31;;;;;;;11.70;9.90;;;17.10;99.90;;;-141.84;76.21;20813.88;5032779;28;20293;-59
2023/05/23 02:28:59;;;;;;;10.48;9.55;;;17.10;99.90;;;-141.84;76.19;20830.16;5033021;28;20198;-59
2023/05/23 02:31:27;;;;;;;11.25;10.13;;;17.10;99.90;;;-141.84;76.68;20830.16;5039345;28;20194;-59
2023/05/23 02:33:57;;;;;;;11.00;9.80;;;17.10;99.90;;;-141.84;76.88;20799.66;5031889;28;20329;-58
2023/05/23 02:36:25;;;;;;;11.10;10.05;;;17.10;99.90;;;-141.84;77.14;20803.72;5032271;28;20209;-59
2023/05/23 02:38:55;;;;;;;12.00;10.80;;;17.10;99.90;;;-141.84;76.94;20826.09;5032021;28;20246;-59
2023/05/23 02:41:23;;;;;;;12.00;10.80;;;17.10;99.90;;;-141.84;77.14;20850.47;5032598;28;20202;-68
2023/05/23 02:43:51;;;;;;;13.05;11.63;;;17.20;99.90;;;-141.84;77.10;20781.38;5032057;28;20244;-67
2023/05/23 02:46:20;;;;;;;13.10;11.70;;;17.20;99.90;;;-141.84;77.28;20801.69;5026517;28;20651;-68
2023/05/23 02:48:48;;;;;;;12.50;11.30;;;17.20;99.90;;;-141.84;77.49;20801.69;5024705;28;20198;-67
2023/05/23 02:51:18;;;;;;;14.52;11.02;;;17.20;99.90;;;-141.84;78.04;20842.34;5032224;28;20267;-68
2023/05/23 02:53:46;;;;;;;12.63;11.45;;;17.20;99.90;;;-141.84;78.43;20809.81;5031930;28;20241;-68
2023/05/23 02:56:14;;;;;;;13.07;11.88;;;17.20;99.90;;;-141.84;78.50;20779.31;5031954;28;20245;-69
2023/05/23 02:58:42;;;;;;;12.60;11.48;;;17.20;99.90;;;-141.84;78.80;20828.13;5031483;28;20720;-67
2023/05/23 03:01:10;;;;;;;12.85;11.55;;;17.30;99.90;;;-141.84;78.87;20795.59;5050870;28;20244;-68
2023/05/23 03:03:40;;;;;;;13.90;12.40;;;17.30;99.90;;;-141.84;79.01;20820.00;5051947;28;20255;-59
2023/05/23 03:06:13;;;;;;;14.95;13.32;;;17.30;99.90;;;-141.84;79.16;20801.69;5043880;28;20678;-59
2023/05/23 03:08:43;;;;;;;14.23;12.90;;;17.30;99.90;;;-141.84;78.31;20805.75;5031911;28;20225;-60
2023/05/23 03:11:12;;;;;;;13.20;11.90;;;17.30;99.90;;;-141.84;78.77;20807.78;5031591;28;20659;-59
2023/05/23 03:13:40;;;;;;;13.07;11.88;;;17.30;99.90;;;-141.84;79.91;20750.88;5031519;28;20732;-58
2023/05/23 03:16:08;;;;;;;13.85;12.50;;;17.30;99.90;;;-141.84;80.33;20742.75;5031559;28;20202;-59
2023/05/23 03:18:36;;;;;;;15.27;12.27;;;17.20;99.90;;;-141.84;80.04;20789.50;5012509;28;20260;-59
2023/05/23 03:21:05;;;;;;;12.65;11.55;;;17.20;99.90;;;-141.84;79.86;20807.78;5031453;28;20206;-60
2023/05/23 03:23:33;;;;;;;13.70;12.27;;;17.20;99.90;;;-141.84;80.14;20761.03;5031324;28;20682;-59
2023/05/23 03:26:05;;;;;;;14.50;13.10;;;17.20;99.90;;;-141.84;79.89;20785.44;5031449;28;20732;-59
2023/05/23 03:28:33;;;;;;;14.18;12.88;;;17.20;99.90;;;-141.84;80.57;20726.47;5031498;28;20232;-59
2023/05/23 03:31:02;;;;;;;14.55;13.23;;;17.10;99.90;;;-141.84;79.94;20773.22;5039609;28;20209;-60
2023/05/23 03:33:30;;;;;;;14.48;13.05;;;17.10;99.90;;;-141.84;79.91;20797.63;5012662;28;20222;-58
2023/05/23 03:35:58;;;;;;;15.55;14.00;;;17.20;99.90;;;-141.84;79.48;20773.22;5031400;28;20202;-60
2023/05/23 03:38:27;;;;;;;15.07;13.48;;;17.20;99.90;;;-141.84;80.07;20789.50;5031160;28;20218;-58
2023/05/23 03:40:56;;;;;;;15.13;13.73;;;17.20;99.90;;;-141.84;80.21;20754.94;5031140;28;20233;-59
2023/05/23 03:43:25;;;;;;;13.55;12.35;;;17.20;99.90;;;-141.84;79.79;20779.31;5031015;28;20260;-61
2023/05/23 03:45:54;;;;;;;16.55;13.88;;;17.20;99.90;;;-141.84;78.77;20779.31;5030939;28;20459;-60
2023/05/23 03:48:22;;;;;;;16.45;14.75;;;17.20;99.90;;;-141.84;79.21;20826.09;5031132;28;20198;-60
2023/05/23 03:50:50;;;;;;;15.52;14.13;;;17.30;99.90;;;-141.84;78.66;20789.50;5031015;28;20206;-60
2023/05/23 03:53:18;;;;;;;15.55;14.05;;;17.30;99.90;;;-141.84;79.13;20756.97;5030784;28;20252;-59
2023/05/23 03:55:47;;;;;;;14.80;13.43;;;17.30;99.90;;;-141.84;79.12;20756.97;5030738;28;20301;-59
2023/05/23 03:58:15;;;;;;;16.15;14.60;;;17.30;99.90;;;-141.84;78.11;20842.34;5030931;28;20206;-60
2023/05/23 04:00:45;;;;;;;15.02;13.63;;;17.40;99.90;;;-141.84;79.05;20805.75;5045470;28;20271;-59
2023/05/23 04:03:13;;;;;;;15.48;13.93;;;17.40;99.90;;;-141.84;79.30;20761.03;5035756;28;20670;-59
2023/05/23 04:05:42;;;;;;;15.73;14.27;;;17.30;99.90;;;-141.84;79.24;20785.44;5030491;28;20205;-59
2023/05/23 04:08:10;;;;;;;14.23;12.93;;;17.30;99.90;;;-141.84;79.28;20789.50;5030434;28;20198;-60
2023/05/23 04:10:39;;;;;;;14.68;13.32;;;17.30;99.90;;;-141.84;78.84;20769.16;5029808;28;20252;-59
2023/05/23 04:13:08;;;;;;;14.60;13.20;;;17.30;99.90;;;-141.84;79.01;20759.00;5030628;28;20198;-59
2023/05/23 04:15:36;;;;;;;14.68;13.20;;;17.30;99.90;;;-141.84;79.55;20740.69;5030157;28;20210;-60
2023/05/23 04:18:07;;;;;;;15.43;13.93;;;17.30;99.90;;;-141.84;79.23;20789.50;5030916;28;20206;-59
2023/05/23 04:20:36;;;;;;;14.70;13.40;;;17.30;99.90;;;-141.84;78.71;20797.63;5030174;28;20609;-58
2023/05/23 04:23:04;;;;;;;14.93;13.52;;;17.30;99.90;;;-141.84;79.41;20761.03;5030640;28;20317;-60
2023/05/23 04:25:33;;;;;;;14.75;13.20;;;17.30;99.90;;;-141.84;79.56;20748.84;5030696;28;20206;-59
2023/05/23 04:28:01;;;;;;;15.13;13.63;;;17.30;99.90;;;-141.84;79.19;20815.91;5030792;28;20206;-58
2023/05/23 04:30:30;;;;;;;15.77;14.30;;;17.30;99.90;;;-141.84;79.64;20746.81;5038427;28;20222;-60
2023/05/23 04:32:58;;;;;;;14.88;13.38;;;17.20;99.90;;;-141.84;79.45;20777.28;5030154;28;20238;-59
2023/05/23 04:35:28;;;;;;;13.90;12.52;;;17.20;99.90;;;-141.84;79.75;20754.94;5030366;28;20305;-58
2023/05/23 04:37:56;;;;;;;14.60;13.27;;;17.20;99.90;;;-141.84;80.17;20722.41;5029343;28;20238;-58
2023/05/23 04:40:25;;;;;;;16.30;14.23;;;17.20;99.90;;;-141.84;79.12;20777.28;5030162;28;20366;-60
2023/05/23 04:42:53;;;;;;;14.30;12.90;;;17.30;99.90;;;-141.84;79.47;20740.69;5029804;28;20224;-58
2023/05/23 04:45:22;;;;;;;15.18;13.35;;;17.30;99.90;;;-141.84;78.43;20781.38;5029811;28;20214;-59
2023/05/23 04:47:53;;;;;;;14.82;13.48;;;17.40;99.90;;;-141.84;75.79;20915.53;5030507;28;20282;-59
2023/05/23 04:50:22;;;;;;;14.10;12.90;;;17.60;99.90;;;-141.84;77.25;20909.44;5030645;28;20186;-60
2023/05/23 04:52:51;;;;;;;12.98;11.77;;;17.80;99.90;;;-141.84;73.43;21033.44;5030135;28;20289;-59
2023/05/23 04:55:20;;;;;;;12.73;11.43;;;18.30;99.90;;;-141.84;67.21;21295.72;5029697;28;20210;-60
2023/05/23 04:57:48;;;;;;;12.50;11.25;;;19.00;99.90;;;-141.84;65.23;21395.34;5030167;28;20697;-59
2023/05/23 05:00:19;;;;;;;12.13;10.82;;;19.50;99.90;;;-141.84;65.58;21391.28;5041177;28;20312;-57
2023/05/23 05:02:47;;;;;;;10.95;9.95;;;19.70;99.90;;;-141.84;64.53;21448.19;5050101;28;20186;-58
2023/05/23 05:05:16;;;;;;;11.60;10.30;;;20.00;99.90;;;-141.84;60.50;21651.53;5050041;28;20278;-58
2023/05/23 05:07:44;;;;;;;11.95;10.85;;;20.40;99.90;;;-141.84;59.85;21684.06;5049805;28;20237;-59
2023/05/23 05:10:15;;;;;;;12.02;10.98;;;20.60;99.90;;;-141.84;58.68;21808.09;5049773;28;20655;-60
2023/05/23 05:12:45;;;;;;;11.48;10.27;;;20.80;99.90;;;-141.84;57.79;21848.75;5049757;28;20684;-60
2023/05/23 05:15:14;;;;;;;11.25;10.15;;;21.10;99.90;;;-141.84;57.58;21948.41;5049468;28;20213;-59
2023/05/23 05:17:42;;;;;;;11.07;10.07;;;21.50;99.90;;;-141.84;55.62;22056.19;5049826;28;20900;-60
2023/05/23 05:20:11;;;;;;;10.80;9.70;;;21.80;99.90;;;-141.84;53.63;22233.09;5050358;28;20217;-59
2023/05/23 05:22:41;;;;;;;12.40;10.93;;;22.20;99.90;;;-141.84;53.84;22143.63;5053302;28;20236;-59
2023/05/23 05:25:12;;;;;;;10.73;9.82;;;22.00;99.90;;;-141.84;56.03;21934.16;5053473;28;20292;-59
2023/05/23 05:27:41;;;;;;;10.00;9.18;;;21.70;99.90;;;-141.84;58.27;21738.97;5053304;28;20701;-60
2023/05/23 05:30:11;;;;;;;11.10;9.80;;;21.30;99.90;;;-141.84;60.67;21610.84;5050930;28;20205;-58
2023/05/23 05:32:40;;;;;;;11.40;10.07;;;21.00;99.90;;;-141.84;62.21;21492.94;5032944;28;20679;-60
2023/05/23 05:35:12;;;;;;;11.70;10.60;;;20.60;99.90;;;-141.84;63.48;21452.25;4986411;28;20610;-60
2023/05/23 05:37:41;;;;;;;12.23;11.07;;;20.20;99.90;;;-141.84;64.47;21356.69;5026455;28;20548;-59
2023/05/23 05:40:09;;;;;;;13.95;12.38;;;20.00;99.90;;;-141.84;64.69;21354.66;5033175;28;20320;-68
2023/05/23 05:42:39;;;;;;;13.88;12.55;;;19.70;99.90;;;-141.84;66.09;21250.97;5033416;28;20205;-69
2023/05/23 05:45:10;;;;;;;13.82;12.48;;;19.50;99.90;;;-141.84;66.82;21261.16;5032958;28;20205;-67
2023/05/23 05:47:38;;;;;;;14.77;13.38;;;19.30;99.90;;;-141.84;67.93;21165.59;5032808;28;20190;-67
2023/05/23 05:50:08;;;;;;;15.02;13.52;;;19.00;99.90;;;-141.84;68.99;21118.84;5033164;28;20198;-67
2023/05/23 05:52:38;;;;;;;19.02;17.13;;;18.80;99.90;;;-141.84;67.40;21143.22;5032845;28;20248;-68
2023/05/23 05:55:10;;;;;;;19.83;17.75;;;18.80;99.90;;;-141.84;66.56;21185.91;5032825;28;20492;-67
2023/05/23 05:57:40;;;;;;;18.83;16.60;;;18.90;99.90;;;-141.84;65.58;21248.94;5033179;28;20187;-67
2023/05/23 06:00:13;;;;;;;18.33;16.40;;;19.00;99.90;;;-141.84;65.81;21175.75;5042868;28;20700;-68
2023/05/23 06:02:42;;;;;;;18.50;16.80;;;19.00;99.90;;;-141.84;65.18;21232.69;5050332;28;20700;-67
2023/05/23 06:05:12;;;;;;;18.25;16.48;;;19.00;99.90;;;-141.84;65.55;21238.78;5032957;28;20206;-68
2023/05/23 06:07:40;;;;;;;17.88;16.08;;;19.00;99.90;;;-141.84;65.21;21224.56;5033007;28;20237;-68
2023/05/23 06:10:11;;;;;;;18.83;16.83;;;19.00;99.90;;;-141.84;66.07;21218.44;5033092;28;20194;-67
2023/05/23 06:12:41;;;;;;;17.77;16.00;;;19.00;99.90;;;-141.84;66.07;21190.00;5033087;28;20193;-68
2023/05/23 06:15:12;;;;;;;16.52;14.77;;;19.00;99.90;;;-141.84;66.98;21159.50;5032520;28;20202;-68
2023/05/23 06:17:40;;;;;;;17.63;15.93;;;18.90;99.90;;;-141.84;67.35;21165.59;5032701;28;20186;-68
2023/05/23 06:20:09;;;;;;;17.55;15.65;;;18.80;99.90;;;-141.84;67.40;21129.00;5032809;28;20291;-69
2023/05/23 06:22:37;;;;;;;18.35;16.55;;;18.80;99.90;;;-141.84;68.79;21084.28;5032472;28;20571;-67
2023/05/23 06:25:07;;;;;;;19.05;16.92;;;18.60;99.90;;;-141.84;69.38;21033.44;5032611;28;20206;-66
2023/05/23 06:27:36;;;;;;;19.35;17.42;;;18.40;99.90;;;-141.84;70.02;21027.34;5032588;28;20230;-67
2023/05/23 06:30:08;;;;;;;18.77;16.75;;;18.30;99.90;;;-141.84;70.85;20994.81;5040040;28;20290;-68
2023/05/23 06:32:36;;;;;;;19.98;16.80;;;18.30;99.90;;;-141.84;71.07;21019.22;5030735;28;20268;-68
2023/05/23 06:35:06;;;;;;;22.08;19.33;;;18.20;99.90;;;-141.84;70.78;21009.03;5032056;28;20210;-67
2023/05/23 06:37:35;;;;;;;20.60;18.25;;;18.20;99.90;;;-141.84;71.80;20935.88;5032395;28;20216;-69
2023/05/23 06:40:04;;;;;;;25.73;21.10;;;18.20;99.90;;;-141.84;72.19;20937.91;5032064;28;20249;-67
2023/05/23 06:42:32;;;;;;;25.40;20.60;;;18.00;99.90;;;-141.84;72.08;20946.03;5031566;28;20238;-68
2023/05/23 06:45:00;;;;;;;23.55;19.30;;;18.00;99.90;;;-141.84;70.32;20917.56;5014267;28;20301;-62
2023/05/23 06:47:30;;;;;;;23.70;17.45;;;17.80;99.90;;;-141.84;70.12;20880.97;5030289;28;20202;-63
2023/05/23 06:49:58;;;;;;;19.55;16.40;;;17.60;99.90;;;-141.84;70.34;20854.53;5026834;28;20571;-62
2023/05/23 06:52:26;;;;;;;19.85;15.52;;;17.50;99.90;;;-141.84;70.38;20862.69;5029505;28;20666;-62
2023/05/23 06:54:54;;;;;;;16.70;13.80;;;17.40;99.90;;;-141.84;69.67;20883.00;5029983;28;20302;-63
2023/05/23 06:57:22;;;;;;;17.50;13.05;;;17.40;99.90;;;-141.84;68.39;20858.59;5029359;28;20208;-70
2023/05/23 06:59:51;;;;;;;13.85;11.68;;;17.30;99.90;;;-141.84;68.06;20820.00;5034826;28;20198;-70
2023/05/23 07:02:19;;;;;;;13.88;11.57;;;17.20;99.90;;;-141.84;68.54;20836.25;5029465;28;20230;-67
2023/05/23 07:04:48;;;;;;;16.70;11.63;;;17.20;99.90;;;-141.84;68.13;20838.28;5030147;28;20206;-66
2023/05/23 07:07:17;;;;;;;13.82;11.10;;;17.30;99.90;;;-141.84;67.55;20856.56;5029168;28;20205;-68
2023/05/23 07:09:45;;;;;;;12.25;9.90;;;17.30;99.90;;;-141.84;66.87;20872.84;5030106;28;20297;-69
2023/05/23 07:12:14;;;;;;;12.68;10.13;;;17.40;99.90;;;-141.84;64.92;20909.44;5030119;28;20206;-67
2023/05/23 07:14:42;;;;;;;11.75;9.65;;;17.40;99.90;;;-141.84;65.14;20903.34;5029565;28;20292;-66
2023/05/23 07:17:10;;;;;;;11.07;8.90;;;17.40;99.90;;;-141.84;64.69;20935.88;5029526;28;20293;-67
2023/05/23 07:19:38;;;;;;;9.38;8.38;;;17.50;99.90;;;-141.84;64.15;20960.25;5029470;28;20667;-67
2023/05/23 07:22:08;;;;;;;10.73;8.65;;;17.60;99.90;;;-141.84;64.26;20956.19;5028925;28;20324;-67
2023/05/23 07:24:36;;;;;;;9.57;8.57;;;17.60;99.90;;;-141.84;63.31;20964.31;5029757;28;20640;-69
2023/05/23 07:27:05;;;;;;;12.32;8.93;;;17.70;99.90;;;-141.84;63.12;21023.28;5025608;28;20233;-68
2023/05/23 07:29:33;;;;;;;9.65;8.73;;;17.80;99.90;;;-141.84;62.17;21070.03;5030363;28;20293;-68
2023/05/23 07:32:02;;;;;;;10.73;8.68;;;17.90;99.90;;;-141.84;62.20;21035.47;5029337;28;20429;-64
2023/05/23 07:34:30;;;;;;;10.35;8.20;;;17.80;99.90;;;-141.84;61.90;21053.78;5029276;28;20257;-66
2023/05/23 07:36:58;;;;;;;8.75;7.85;;;18.00;99.90;;;-141.84;62.26;21004.97;5029805;28;20234;-64
2023/05/23 07:39:28;;;;;;;10.60;9.43;;;17.90;99.90;;;-141.84;61.86;21041.56;5027544;28;20202;-63
2023/05/23 07:41:56;;;;;;;9.45;8.18;;;18.00;99.90;;;-141.84;62.30;21049.72;5029443;28;20272;-64
2023/05/23 07:44:24;;;;;;;9.70;8.70;;;17.90;99.90;;;-141.84;62.04;21053.78;5028259;28;20647;-64
2023/05/23 07:46:52;;;;;;;9.40;8.50;;;17.90;99.90;;;-141.84;62.46;21029.38;5029557;28;20301;-63
2023/05/23 07:49:21;;;;;;;10.43;7.97;;;17.90;99.90;;;-141.84;62.19;21059.88;5029067;28;20194;-61
2023/05/23 07:51:49;;;;;;;9.13;8.23;;;17.90;99.90;;;-141.84;62.18;21057.84;5028945;28;20240;-62
2023/05/23 07:54:17;;;;;;;10.35;8.70;;;18.00;99.90;;;-141.84;61.89;21072.06;5029080;28;20241;-62
2023/05/23 07:56:47;;;;;;;11.30;8.48;;;18.00;99.90;;;-141.84;62.11;21037.50;5028485;28;20490;-65
2023/05/23 07:59:15;;;;;;;9.70;8.15;;;18.00;99.90;;;-141.84;62.97;21045.63;5029121;28;20209;-68
2023/05/23 08:01:44;;;;;;;8.68;7.78;;;18.00;99.90;;;-141.84;62.82;21049.72;5028526;28;20252;-66
2023/05/23 08:04:12;;;;;;;9.02;8.13;;;18.10;99.90;;;-141.84;62.35;21059.88;5028861;28;20594;-67
2023/05/23 08:06:40;;;;;;;9.07;7.85;;;18.10;99.90;;;-141.84;62.16;21088.34;5029128;28;20198;-73
2023/05/23 08:09:27;;;;;;;10.32;8.88;;;18.00;99.90;;;-141.84;62.51;20998.88;5029189;28;20205;-73
2023/05/23 08:11:57;;;;;;;9.50;8.50;;;17.90;99.90;;;-141.84;62.34;21033.44;5029254;28;20394;-72
2023/05/23 08:14:25;;;;;;;8.57;7.68;;;17.90;99.90;;;-141.84;62.76;20996.84;5028638;28;20689;-74
2023/05/23 08:17:11;;;;;;;8.90;8.00;;;17.90;99.90;;;-141.84;62.58;21094.44;5024875;28;20614;-72
2023/05/23 08:19:39;;;;;;;11.10;8.15;;;18.00;99.90;;;-141.84;62.25;21080.19;5028434;28;20809;-74
2023/05/23 08:22:07;;;;;;;9.02;7.75;;;18.10;99.90;;;-141.84;61.69;21102.56;5028789;28;20271;-66
2023/05/23 08:24:35;;;;;;;11.65;8.07;;;18.20;99.90;;;-141.84;62.21;21098.50;5028749;28;20232;-67
2023/05/23 08:27:06;;;;;;;13.18;8.20;;;18.20;99.90;;;-141.84;62.36;21096.47;5028952;28;20202;-66
2023/05/23 08:29:36;;;;;;;9.25;8.32;;;18.20;99.90;;;-141.84;62.23;21084.28;5030652;28;20237;-65
2023/05/23 08:32:04;;;;;;;9.00;7.90;;;18.20;99.90;;;-141.84;62.58;21072.06;5026586;28;20292;-65
2023/05/23 08:34:33;;;;;;;8.48;7.68;;;18.30;99.90;;;-141.84;62.93;21094.44;5024883;28;20198;-67
2023/05/23 08:37:01;;;;;;;9.07;8.18;;;18.40;99.90;;;-141.84;61.08;21165.59;5029006;28;20646;-67
2023/05/23 08:39:29;;;;;;;8.73;7.75;;;18.40;99.90;;;-141.84;61.15;21135.09;5025512;28;20311;-68
2023/05/23 08:41:57;;;;;;;8.50;7.60;;;18.20;99.90;;;-141.84;61.05;21198.13;5028770;28;20596;-68
2023/05/23 08:44:27;;;;;;;8.38;7.43;;;18.50;99.90;;;-141.84;61.04;21192.03;5027982;28;20240;-69
2023/05/23 08:46:58;;;;;;;8.25;7.45;;;18.50;99.90;;;-141.84;61.42;21183.88;5028735;28;20229;-68
2023/05/23 08:49:26;;;;;;;10.27;7.68;;;18.50;99.90;;;-141.84;61.31;21169.66;5028247;28;20228;-66
2023/05/23 08:52:02;;;;;;;8.70;7.90;;;18.60;99.90;;;-141.84;60.84;21222.53;5028366;28;20206;-68
2023/05/23 08:54:31;;;;;;;8.02;7.22;;;18.70;99.90;;;-141.84;60.97;21224.56;5026319;28;20198;-70
2023/05/23 08:56:59;;;;;;;7.65;6.95;;;18.80;99.90;;;-141.84;61.11;21238.78;5025168;28;20217;-69
2023/05/23 08:59:31;;;;;;;9.20;7.88;;;19.00;99.90;;;-141.84;59.72;21250.97;5032426;28;20259;-65
2023/05/23 09:02:03;;;;;;;8.85;7.88;;;19.00;99.90;;;-141.84;59.62;21297.75;5032654;28;20291;-64
2023/05/23 09:04:31;;;;;;;9.65;8.48;;;19.20;99.90;;;-141.84;58.45;21305.88;5029113;28;20573;-65
2023/05/23 09:07:02;;;;;;;8.13;6.88;;;19.10;99.90;;;-141.84;59.44;21289.59;5032418;28;20732;-64
2023/05/23 09:09:30;;;;;;;9.55;7.57;;;19.20;99.90;;;-141.84;59.22;21322.13;5032117;28;20281;-63
2023/05/23 09:12:02;;;;;;;9.60;8.63;;;19.30;99.90;;;-141.84;58.57;21340.44;5031260;28;20190;-63
2023/05/23 09:14:31;;;;;;;9.70;7.75;;;19.30;99.90;;;-141.84;58.77;21309.94;5032039;28;20245;-64
2023/05/23 09:17:02;;;;;;;9.60;8.18;;;19.20;99.90;;;-141.84;59.41;21314.00;5032186;28;20285;-63
2023/05/23 09:19:32;;;;;;;8.73;7.82;;;19.20;99.90;;;-141.84;60.01;21295.72;5031537;28;20198;-63
2023/05/23 09:22:03;;;;;;;10.88;8.27;;;19.10;99.90;;;-141.84;60.78;21208.28;5031504;28;20222;-72
2023/05/23 09:24:35;;;;;;;11.13;9.05;;;18.90;99.90;;;-141.84;61.11;21192.03;5022870;28;20277;-66
2023/05/23 09:27:06;;;;;;;10.18;9.18;;;18.80;99.90;;;-141.84;62.30;21169.66;5032430;28;20209;-65
2023/05/23 09:29:39;;;;;;;8.95;8.15;;;18.60;99.90;;;-141.84;62.86;21151.34;5032547;28;20729;-66
2023/05/23 09:32:16;;;;;;;12.75;9.30;;;18.60;99.90;;;-141.84;62.87;21167.63;5031773;28;20198;-66
2023/05/23 09:34:56;;;;;;;10.35;9.25;;;18.50;99.90;;;-141.84;63.89;21072.06;5031739;28;20190;-67
2023/05/23 09:37:31;;;;;;;10.93;9.90;;;18.40;99.90;;;-141.84;63.84;21070.03;5029592;28;20202;-65
2023/05/23 09:40:00;;;;;;;11.63;9.90;;;18.30;99.90;;;-141.84;63.57;21112.72;5031372;28;20293;-69
2023/05/23 09:42:33;;;;;;;10.93;9.73;;;18.10;99.90;;;-141.84;64.64;21037.50;5031245;28;20237;-69
2023/05/23 09:45:04;;;;;;;11.20;10.02;;;18.10;99.90;;;-141.84;64.78;21047.69;5031559;28;20222;-69
2023/05/23 09:47:32;;;;;;;10.80;9.07;;;17.90;99.90;;;-141.84;65.35;21009.03;5030517;28;20293;-64
2023/05/23 09:50:01;;;;;;;11.15;10.15;;;18.00;99.90;;;-141.84;66.28;21013.13;5030911;28;20237;-64
2023/05/23 09:52:37;;;;;;;10.07;8.88;;;17.80;99.90;;;-141.84;67.85;20931.78;5031370;28;20202;-67
2023/05/23 09:55:06;;;;;;;10.60;9.43;;;17.70;99.90;;;-141.84;67.57;20941.97;5028530;28;20618;-72
2023/05/23 09:57:36;;;;;;;12.00;10.50;;;17.70;99.90;;;-141.84;67.98;20944.00;5031541;28;20206;-72
2023/05/23 10:00:10;;;;;;;14.55;10.30;;;17.70;99.90;;;-141.84;67.55;20962.28;5033019;28;20450;-69
2023/05/23 10:03:01;;;;;;;10.75;9.50;;;17.60;99.90;;;-141.84;68.98;20868.78;5030899;28;20713;-67
2023/05/23 10:05:38;;;;;;;11.57;10.38;;;17.60;99.90;;;-141.84;69.79;20872.84;5030600;28;20256;-66
2023/05/23 10:08:14;;;;;;;10.70;9.25;;;17.60;99.90;;;-141.84;69.96;20870.81;5026307;28;20202;-65
2023/05/23 10:12:21;;;;;;;10.70;9.63;;;17.60;99.90;;;-141.84;69.65;20874.88;5030777;28;20194;-67
2023/05/23 10:14:57;;;;;;;11.63;10.43;;;17.50;99.90;;;-141.84;69.75;20956.19;5029799;28;20536;-67